createdAt,value
2023-05-08T00:04:17.960Z,100012.23
2023-05-08T00:09:21.651Z,100016.40
2023-05-08T00:14:25.102Z,100022.67
2023-05-08T00:19:28.261Z,100018.73
2023-05-08T00:24:31.616Z,100015.42
2023-05-08T00:29:35.362Z,100013.99
2023-05-08T00:34:38.445Z,100015.24
2023-05-08T00:39:41.580Z,100022.27
2023-05-08T00:44:46.075Z,100022.56
2023-05-08T00:49:50.061Z,100027.90
2023-05-08T00:54:54.353Z,100027.37
2023-05-08T01:00:00.170Z,100034.27
2023-05-08T01:05:04.189Z,100041.96
2023-05-08T01:10:08.302Z,100039.96
2023-05-08T01:15:20.700Z,100046.16
2023-05-08T01:20:39.202Z,100054.73
2023-05-08T01:26:03.689Z,100055.49
2023-05-08T01:31:40.751Z,100050.35
2023-05-08T01:37:11.793Z,100053.63
2023-05-08T01:42:37.077Z,100052.87
2023-05-08T01:47:42.923Z,100047.97
2023-05-08T01:52:51.067Z,100053.52
2023-05-08T01:57:58.393Z,100057.03
2023-05-08T02:03:02.821Z,100055.15
2023-05-08T02:08:09.401Z,100053.23
2023-05-08T02:13:19.310Z,100052.35
2023-05-08T02:18:25.776Z,100051.44
2023-05-08T02:23:30.498Z,100047.12
2023-05-08T02:28:35.555Z,100060.73
2023-05-08T02:33:43.357Z,100063.27
2023-05-08T02:38:51.644Z,100063.57
2023-05-08T02:43:55.996Z,100065.79
2023-05-08T02:49:05.262Z,100071.35
2023-05-08T02:54:11.757Z,100073.96
2023-05-08T02:59:29.099Z,100076.06
2023-05-08T03:04:40.574Z,100078.12
2023-05-08T03:09:48.405Z,100083.98
2023-05-08T03:15:07.080Z,100082.61
2023-05-08T03:20:17.350Z,100083.20
2023-05-08T03:25:22.074Z,100086.17
2023-05-08T03:30:27.816Z,100085.15
2023-05-08T03:35:42.810Z,100085.52
2023-05-08T03:40:47.142Z,100089.36
2023-05-08T03:45:51.532Z,100089.80
2023-05-08T03:50:55.863Z,100093.45
2023-05-08T03:56:00.972Z,100096.52
2023-05-08T04:01:25.152Z,100095.67
2023-05-08T04:06:49.312Z,100099.65
2023-05-08T04:12:05.399Z,100101.61
2023-05-08T04:17:16.283Z,100110.81
2023-05-08T04:22:23.574Z,100122.88
2023-05-08T04:27:27.794Z,100126.23
2023-05-08T04:32:41.312Z,100130.98
2023-05-08T04:37:47.479Z,100137.56
2023-05-08T04:42:51.473Z,100141.59
2023-05-08T04:47:55.566Z,100146.14
2023-05-08T04:52:59.068Z,100152.74
2023-05-08T04:58:03.080Z,100156.36
2023-05-08T05:03:06.943Z,100163.40
2023-05-08T05:08:10.445Z,100163.61
2023-05-08T05:13:13.680Z,100171.58
2023-05-08T05:18:17.339Z,100177.63
2023-05-08T05:23:20.821Z,100179.89
2023-05-08T05:28:24.165Z,100184.61
2023-05-08T05:33:27.568Z,100183.62
2023-05-08T05:38:31.117Z,100189.02
2023-05-08T05:43:34.643Z,100190.67
2023-05-08T05:48:41.912Z,100192.58
2023-05-08T05:53:45.743Z,100196.04
2023-05-08T05:58:49.426Z,100205.84
2023-05-08T06:03:53.313Z,100209.77
2023-05-08T06:08:57.057Z,100214.40
2023-05-08T06:14:00.187Z,100214.52
2023-05-08T06:19:03.839Z,100217.54
2023-05-08T06:24:07.955Z,100220.90
2023-05-08T06:29:11.299Z,100220.05
2023-05-08T06:34:14.762Z,100230.05
2023-05-08T06:39:18.552Z,100238.41
2023-05-08T06:44:21.784Z,100234.77
2023-05-08T06:49:24.879Z,100237.52
2023-05-08T06:54:34.748Z,100236.20
2023-05-08T06:59:42.591Z,100231.16
2023-05-08T07:04:46.646Z,100230.45
2023-05-08T07:09:50.023Z,100235.84
2023-05-08T07:14:54.275Z,100240.98
2023-05-08T07:19:59.057Z,100242.95
2023-05-08T07:25:02.462Z,100233.20
2023-05-08T07:30:06.422Z,100238.58
2023-05-08T07:35:14.352Z,100246.35
2023-05-08T07:40:17.905Z,100249.65
2023-05-08T07:45:21.337Z,100249.36
2023-05-08T07:50:26.198Z,100254.58
2023-05-08T07:55:33.582Z,100254.45
2023-05-08T08:00:38.073Z,100255.92
2023-05-08T08:05:42.290Z,100257.89
2023-05-08T08:10:45.659Z,100253.42
2023-05-08T08:15:48.992Z,100249.01
2023-05-08T08:20:52.360Z,100259.43
2023-05-08T08:25:55.785Z,100252.18
2023-05-08T08:30:59.260Z,100251.06
2023-05-08T08:36:03.963Z,100246.42
2023-05-08T08:41:07.399Z,100247.55
2023-05-08T08:46:16.148Z,100250.92
2023-05-08T08:52:04.308Z,100245.71
2023-05-08T08:57:09.223Z,100246.41
2023-05-08T09:02:20.438Z,100251.65
2023-05-08T09:07:24.694Z,100260.61
2023-05-08T09:12:28.139Z,100258.54
2023-05-08T09:17:31.653Z,100260.92
2023-05-08T09:22:39.126Z,100257.64
2023-05-08T09:27:43.003Z,100255.05
2023-05-08T09:32:46.578Z,100258.63
2023-05-08T09:38:07.851Z,100248.20
2023-05-08T09:43:14.189Z,100248.90
2023-05-08T09:48:17.228Z,100263.29
2023-05-08T09:53:20.327Z,100259.06
2023-05-08T09:58:25.112Z,100262.90
2023-05-08T10:03:47.283Z,100267.67
2023-05-08T10:09:09.159Z,100268.91
2023-05-08T10:14:12.231Z,100264.23
2023-05-08T10:19:20.494Z,100260.68
2023-05-08T10:24:33.788Z,100261.09
2023-05-08T10:29:52.720Z,100259.46
2023-05-08T10:35:03.456Z,100255.58
2023-05-08T10:40:07.191Z,100248.30
2023-05-08T10:45:11.525Z,100243.23
2023-05-08T10:50:23.569Z,100240.79
2023-05-08T10:55:31.421Z,100240.61
2023-05-08T11:00:57.131Z,100232.19
2023-05-08T11:06:01.144Z,100232.09
2023-05-08T11:11:17.551Z,100234.48
2023-05-08T11:16:55.543Z,100235.77
2023-05-08T11:22:23.904Z,100230.81
2023-05-08T11:27:35.738Z,100224.58
2023-05-08T11:33:04.042Z,100217.52
2023-05-08T11:38:36.897Z,100219.39
2023-05-08T11:43:45.623Z,100223.92
2023-05-08T11:48:49.174Z,100216.84
2023-05-08T11:53:52.657Z,100217.71
2023-05-08T11:59:06.085Z,100219.76
2023-05-08T12:04:12.309Z,100217.20
2023-05-08T12:09:17.843Z,100212.08
2023-05-08T12:14:23.277Z,100203.20
2023-05-08T12:19:26.503Z,100204.48
2023-05-08T12:24:30.848Z,100202.41
2023-05-08T12:29:36.355Z,100208.79
2023-05-08T12:34:41.809Z,100204.34
2023-05-08T12:39:47.955Z,100199.92
2023-05-08T12:44:52.603Z,100197.98
2023-05-08T12:49:58.169Z,100189.36
2023-05-08T12:55:01.190Z,100188.05
2023-05-08T13:00:14.223Z,100194.39
2023-05-08T13:05:20.275Z,100199.24
2023-05-08T13:10:24.491Z,100196.00
2023-05-08T13:15:28.958Z,100189.27
2023-05-08T13:25:31.128Z,100190.69
2023-05-08T13:30:36.885Z,100190.09
2023-05-08T13:35:41.072Z,100188.23
2023-05-08T13:40:44.590Z,100187.45
2023-05-08T13:45:48.406Z,100185.69
2023-05-08T13:50:51.777Z,100183.41
2023-05-08T13:55:55.365Z,100177.29
2023-05-08T14:01:00.373Z,100173.84
2023-05-08T14:06:08.837Z,100178.95
2023-05-08T14:11:15.459Z,100179.66
2023-05-08T14:22:33.108Z,100177.59
2023-05-08T14:27:58.514Z,100174.27
2023-05-08T14:33:04.536Z,100168.35
2023-05-08T14:38:08.181Z,100171.67
2023-05-08T14:48:57.595Z,100171.67
2023-05-08T14:54:01.543Z,100172.70
2023-05-08T14:59:09.875Z,100176.30
2023-05-08T15:25:37.119Z,100168.77
2023-05-08T15:30:41.264Z,100171.26
2023-05-08T15:35:49.071Z,100171.16
2023-05-08T15:41:00.501Z,100163.46
2023-05-08T15:46:04.424Z,100159.48
2023-05-08T15:51:30.388Z,100159.25
2023-05-08T15:57:09.746Z,100153.46
2023-05-08T16:02:14.783Z,100147.39
2023-05-08T16:07:48.724Z,100144.98
2023-05-08T16:13:09.801Z,100146.72
2023-05-08T16:18:13.352Z,100141.27
2023-05-08T16:23:37.853Z,100136.42
2023-05-08T16:28:59.689Z,100138.92
2023-05-08T16:34:28.679Z,100143.23
2023-05-08T16:40:14.699Z,100147.25
2023-05-08T16:45:20.356Z,100150.80
2023-05-08T16:56:32.842Z,100149.19
2023-05-08T17:07:22.571Z,100148.84
2023-05-08T17:12:40.303Z,100146.55
2023-05-08T17:24:21.038Z,100155.19
2023-05-08T17:35:58.092Z,100161.27
2023-05-08T17:41:18.704Z,100159.81
2023-05-08T17:46:22.710Z,100159.23
2023-05-08T17:51:29.307Z,100166.84
2023-05-08T17:56:32.590Z,100164.41
2023-05-08T18:01:44.222Z,100161.83
2023-05-08T18:12:54.730Z,100162.08
2023-05-08T18:24:26.656Z,100173.77
2023-05-08T18:29:49.773Z,100180.40
2023-05-08T18:35:24.591Z,100177.86
2023-05-08T18:40:42.621Z,100183.77
2023-05-08T18:46:14.812Z,100189.84
2023-05-08T18:58:00.722Z,100195.46
2023-05-08T19:03:19.902Z,100204.97
2023-05-08T19:08:25.667Z,100205.70
2023-05-08T19:13:34.455Z,100208.15
2023-05-08T19:18:37.957Z,100208.91
2023-05-08T19:23:44.837Z,100210.08
2023-05-08T19:28:49.057Z,100208.14
2023-05-08T19:33:52.789Z,100212.24
2023-05-08T19:38:56.110Z,100212.64
2023-05-08T19:44:01.763Z,100214.76
2023-05-08T19:49:05.389Z,100212.42
2023-05-08T19:54:08.845Z,100201.59
2023-05-08T19:59:15.061Z,100202.39
2023-05-08T20:04:18.396Z,100196.21
2023-05-08T20:09:21.831Z,100193.45
2023-05-08T20:14:25.189Z,100188.46
2023-05-08T20:19:28.555Z,100188.05
2023-05-08T20:24:31.881Z,100188.52
2023-05-08T20:29:35.528Z,100187.85
2023-05-08T20:34:39.068Z,100183.00
2023-05-08T20:39:42.920Z,100180.71
2023-05-08T20:44:46.228Z,100183.66
2023-05-08T20:49:49.685Z,100181.91
2023-05-08T20:54:52.977Z,100181.68
2023-05-08T20:59:56.379Z,100180.25
2023-05-08T21:04:59.916Z,100179.30
2023-05-08T21:10:03.739Z,100174.40
2023-05-08T21:15:07.886Z,100174.23
2023-05-08T21:20:11.655Z,100170.44
2023-05-08T21:25:15.914Z,100170.46
2023-05-08T21:30:19.662Z,100169.64
2023-05-08T21:35:22.993Z,100164.97
2023-05-08T21:40:26.439Z,100156.80
2023-05-08T21:45:33.249Z,100156.40
2023-05-08T21:50:36.704Z,100157.98
2023-05-08T21:55:44.649Z,100156.27
2023-05-08T22:00:56.293Z,100155.48
2023-05-08T22:06:12.132Z,100152.73
2023-05-08T22:11:42.316Z,100146.20
2023-05-08T22:16:45.803Z,100144.55
2023-05-08T22:21:48.916Z,100140.74
2023-05-08T22:26:52.009Z,100140.02
2023-05-08T22:31:55.924Z,100139.69
2023-05-08T22:37:00.246Z,100136.14
2023-05-08T22:42:03.692Z,100131.11
2023-05-08T22:47:06.961Z,100134.46
2023-05-08T22:52:10.195Z,100131.23
2023-05-08T22:57:14.396Z,100130.03
2023-05-08T23:02:17.520Z,100131.38
2023-05-08T23:07:20.661Z,100135.24
2023-05-08T23:12:23.874Z,100130.33
2023-05-08T23:17:27.085Z,100133.76
2023-05-08T23:22:30.329Z,100127.91
2023-05-08T23:27:33.401Z,100127.83
2023-05-08T23:32:38.393Z,100125.52
2023-05-08T23:37:42.065Z,100121.23
2023-05-08T23:42:45.458Z,100121.86
2023-05-08T23:47:49.521Z,100120.82
2023-05-08T23:52:52.764Z,100107.52
2023-05-08T23:57:57.158Z,100103.09
